Huvudsida
METAR-TAF:

METAR-TAF

Flygplatser :

Florø flygplats

Florø, Norge

latitud: 61-35N, longitud: 005-02E, höjd: 0 m

Aktuellt väderrapport

Denna rapport gjordes för 28 minuter sedan, klockan 10:20 UTC
Vind 11 kt från ost/sydost
Temperatur 4°C
Fuktighet 65%
Tryck 988 hPa
Sikt 10 km eller mer
Få moln på en höjd av 2500 ft

METAR: ENFL 281020Z 11011KT 9999 FEW025 04/M02 Q0988

Tid: 11:48 (10:48 UTC)

Väderprognos

Denna rapport gjordes för 2 timmar och 48 minuter sedan, klockan 08:00 UTC
Prognos gäller från 28 kl. 09 UTC till 28 kl. 18 UTC
Vind 12 kt från ost/sydost
Sikt 10 km eller mer
Få moln på en höjd av 5000 ft

TAF: ENFL 280800Z 2809/2818 12012KT 9999 FEW050

Aktuella väderrapporter och prognoser från 4000 flygplatser (METAR- och TAF-rapporter).

De tillgängliga stationerna syns som gula och röda prickar på kartan.

För musen över prickarna för att se namnen på stationerna.

Klicka sedan för att få väderrapporter och prognoser.

För att ändra kartan: Klicka på de gröna knapparna med ett svart kors på för att zooma in; den gröna knappen med ett streck på för att zooma ut; eller på de gröna pilarna för angränsande kartor.


METAR-TAF: